sensor_id;sensor_type;location;lat;lon;timestamp;temperature;humidity
21627;DHT22;10975;47.872;12.972;2023-07-29T00:01:37;17.40;99.90
21627;DHT22;10975;47.872;12.972;2023-07-29T00:04:08;17.40;99.90
21627;DHT22;10975;47.872;12.972;2023-07-29T00:06:35;17.40;99.90
21627;DHT22;10975;47.872;12.972;2023-07-29T00:09:03;17.40;99.90
21627;DHT22;10975;47.872;12.972;2023-07-29T00:11:30;17.40;99.90
21627;DHT22;10975;47.872;12.972;2023-07-29T00:14:02;17.40;99.90
21627;DHT22;10975;47.872;12.972;2023-07-29T00:16:28;17.40;99.90
21627;DHT22;10975;47.872;12.972;2023-07-29T00:18:55;17.40;99.90
21627;DHT22;10975;47.872;12.972;2023-07-29T00:21:22;17.40;99.90
21627;DHT22;10975;47.872;12.972;2023-07-29T00:23:49;17.40;99.90
21627;DHT22;10975;47.872;12.972;2023-07-29T00:26:16;17.40;99.90
21627;DHT22;10975;47.872;12.972;2023-07-29T00:28:43;17.40;99.90
21627;DHT22;10975;47.872;12.972;2023-07-29T00:31:10;17.50;99.90
21627;DHT22;10975;47.872;12.972;2023-07-29T00:33:38;17.50;99.90
21627;DHT22;10975;47.872;12.972;2023-07-29T00:36:05;17.50;99.90
21627;DHT22;10975;47.872;12.972;2023-07-29T00:38:32;17.50;99.90
21627;DHT22;10975;47.872;12.972;2023-07-29T00:40:59;17.50;99.90
21627;DHT22;10975;47.872;12.972;2023-07-29T00:43:26;17.50;99.90
21627;DHT22;10975;47.872;12.972;2023-07-29T00:45:53;17.50;99.90
21627;DHT22;10975;47.872;12.972;2023-07-29T00:48:20;17.50;99.90
21627;DHT22;10975;47.872;12.972;2023-07-29T00:50:50;17.50;99.90
21627;DHT22;10975;47.872;12.972;2023-07-29T00:53:24;17.50;99.90
21627;DHT22;10975;47.872;12.972;2023-07-29T00:56:08;17.50;99.90
21627;DHT22;10975;47.872;12.972;2023-07-29T00:58:35;17.50;99.90
21627;DHT22;10975;47.872;12.972;2023-07-29T01:01:02;17.50;99.90
21627;DHT22;10975;47.872;12.972;2023-07-29T01:03:29;17.50;99.90
21627;DHT22;10975;47.872;12.972;2023-07-29T01:05:59;17.50;99.90
21627;DHT22;10975;47.872;12.972;2023-07-29T01:08:31;17.50;99.90
21627;DHT22;10975;47.872;12.972;2023-07-29T01:13:48;17.50;99.90
21627;DHT22;10975;47.872;12.972;2023-07-29T01:16:19;17.40;99.90
21627;DHT22;10975;47.872;12.972;2023-07-29T01:18:50;17.50;99.90
21627;DHT22;10975;47.872;12.972;2023-07-29T01:21:19;17.40;99.90
21627;DHT22;10975;47.872;12.972;2023-07-29T01:23:47;17.40;99.90
21627;DHT22;10975;47.872;12.972;2023-07-29T01:26:13;17.40;99.90
21627;DHT22;10975;47.872;12.972;2023-07-29T01:28:41;17.40;99.90
21627;DHT22;10975;47.872;12.972;2023-07-29T01:33:36;17.40;99.90
21627;DHT22;10975;47.872;12.972;2023-07-29T01:36:11;17.30;99.90
21627;DHT22;10975;47.872;12.972;2023-07-29T01:38:40;17.30;99.90
21627;DHT22;10975;47.872;12.972;2023-07-29T01:41:08;17.30;99.90
21627;DHT22;10975;47.872;12.972;2023-07-29T01:43:36;17.40;99.90
21627;DHT22;10975;47.872;12.972;2023-07-29T01:46:09;17.40;99.90
21627;DHT22;10975;47.872;12.972;2023-07-29T01:48:37;17.40;99.90
21627;DHT22;10975;47.872;12.972;2023-07-29T01:51:07;17.40;99.90
21627;DHT22;10975;47.872;12.972;2023-07-29T01:53:34;17.30;99.90
21627;DHT22;10975;47.872;12.972;2023-07-29T01:56:02;17.30;99.90
21627;DHT22;10975;47.872;12.972;2023-07-29T01:58:29;17.30;99.90
21627;DHT22;10975;47.872;12.972;2023-07-29T02:00:56;17.20;99.90
21627;DHT22;10975;47.872;12.972;2023-07-29T02:03:23;17.30;99.90
21627;DHT22;10975;47.872;12.972;2023-07-29T02:05:50;17.30;99.90
21627;DHT22;10975;47.872;12.972;2023-07-29T02:08:18;17.30;99.90
21627;DHT22;10975;47.872;12.972;2023-07-29T02:10:44;17.30;99.90
21627;DHT22;10975;47.872;12.972;2023-07-29T02:13:14;17.30;99.90
21627;DHT22;10975;47.872;12.972;2023-07-29T02:15:41;17.30;99.90
21627;DHT22;10975;47.872;12.972;2023-07-29T02:18:11;17.30;99.90
21627;DHT22;10975;47.872;12.972;2023-07-29T02:20:38;17.30;99.90
21627;DHT22;10975;47.872;12.972;2023-07-29T02:23:04;17.20;99.90
21627;DHT22;10975;47.872;12.972;2023-07-29T02:25:34;17.20;99.90
21627;DHT22;10975;47.872;12.972;2023-07-29T02:28:01;17.10;99.90
21627;DHT22;10975;47.872;12.972;2023-07-29T02:30:31;17.10;99.90
21627;DHT22;10975;47.872;12.972;2023-07-29T02:32:58;17.00;99.90
21627;DHT22;10975;47.872;12.972;2023-07-29T02:35:28;17.00;99.90
21627;DHT22;10975;47.872;12.972;2023-07-29T02:37:54;16.90;99.90
21627;DHT22;10975;47.872;12.972;2023-07-29T02:40:24;16.90;99.90
21627;DHT22;10975;47.872;12.972;2023-07-29T02:43:00;16.80;99.90
21627;DHT22;10975;47.872;12.972;2023-07-29T02:45:31;16.80;99.90
21627;DHT22;10975;47.872;12.972;2023-07-29T02:47:58;16.80;99.90
21627;DHT22;10975;47.872;12.972;2023-07-29T02:50:26;16.70;99.90
21627;DHT22;10975;47.872;12.972;2023-07-29T02:52:53;16.70;99.90
21627;DHT22;10975;47.872;12.972;2023-07-29T02:55:23;16.70;99.90
21627;DHT22;10975;47.872;12.972;2023-07-29T02:57:52;16.70;99.90
21627;DHT22;10975;47.872;12.972;2023-07-29T03:00:18;16.60;99.90
21627;DHT22;10975;47.872;12.972;2023-07-29T03:02:45;16.60;99.90
21627;DHT22;10975;47.872;12.972;2023-07-29T03:05:12;16.60;99.90
21627;DHT22;10975;47.872;12.972;2023-07-29T03:07:39;16.60;99.90
21627;DHT22;10975;47.872;12.972;2023-07-29T03:10:13;16.50;99.90
21627;DHT22;10975;47.872;12.972;2023-07-29T03:12:41;16.40;99.90
21627;DHT22;10975;47.872;12.972;2023-07-29T03:15:08;16.30;99.90
21627;DHT22;10975;47.872;12.972;2023-07-29T03:17:35;16.30;99.90
21627;DHT22;10975;47.872;12.972;2023-07-29T03:20:02;16.20;99.90
21627;DHT22;10975;47.872;12.972;2023-07-29T03:22:31;16.30;99.90
21627;DHT22;10975;47.872;12.972;2023-07-29T03:25:05;16.30;99.90
21627;DHT22;10975;47.872;12.972;2023-07-29T03:27:33;16.40;99.90
21627;DHT22;10975;47.872;12.972;2023-07-29T03:30:03;16.30;99.90
21627;DHT22;10975;47.872;12.972;2023-07-29T03:32:31;16.30;99.90
21627;DHT22;10975;47.872;12.972;2023-07-29T03:34:59;16.30;99.90
21627;DHT22;10975;47.872;12.972;2023-07-29T03:37:27;16.40;99.90
21627;DHT22;10975;47.872;12.972;2023-07-29T03:39:54;16.40;99.90
21627;DHT22;10975;47.872;12.972;2023-07-29T03:42:21;16.40;99.90
21627;DHT22;10975;47.872;12.972;2023-07-29T03:44:48;16.40;99.90
21627;DHT22;10975;47.872;12.972;2023-07-29T03:47:17;16.40;99.90
21627;DHT22;10975;47.872;12.972;2023-07-29T03:49:44;16.50;99.90
21627;DHT22;10975;47.872;12.972;2023-07-29T03:52:14;16.60;99.90
21627;DHT22;10975;47.872;12.972;2023-07-29T03:54:42;16.60;99.90
21627;DHT22;10975;47.872;12.972;2023-07-29T03:57:12;16.60;99.90
21627;DHT22;10975;47.872;12.972;2023-07-29T03:59:38;16.70;99.90
21627;DHT22;10975;47.872;12.972;2023-07-29T04:02:06;16.70;99.90
21627;DHT22;10975;47.872;12.972;2023-07-29T04:04:33;16.60;99.90
21627;DHT22;10975;47.872;12.972;2023-07-29T04:07:02;16.60;99.90
21627;DHT22;10975;47.872;12.972;2023-07-29T04:09:30;16.60;99.90
21627;DHT22;10975;47.872;12.972;2023-07-29T04:11:57;16.70;99.90
21627;DHT22;10975;47.872;12.972;2023-07-29T04:14:23;16.80;99.90
21627;DHT22;10975;47.872;12.972;2023-07-29T04:16:50;16.90;99.90
21627;DHT22;10975;47.872;12.972;2023-07-29T04:19:17;16.90;99.90
21627;DHT22;10975;47.872;12.972;2023-07-29T04:21:46;17.00;99.90
21627;DHT22;10975;47.872;12.972;2023-07-29T04:24:13;17.00;99.90
21627;DHT22;10975;47.872;12.972;2023-07-29T04:26:42;17.00;99.90
21627;DHT22;10975;47.872;12.972;2023-07-29T04:29:17;17.10;99.90
21627;DHT22;10975;47.872;12.972;2023-07-29T04:31:43;17.20;99.90
21627;DHT22;10975;47.872;12.972;2023-07-29T04:34:10;17.30;99.90
21627;DHT22;10975;47.872;12.972;2023-07-29T04:36:37;17.30;99.90
21627;DHT22;10975;47.872;12.972;2023-07-29T04:39:04;17.40;99.90
21627;DHT22;10975;47.872;12.972;2023-07-29T04:41:34;17.40;99.90
21627;DHT22;10975;47.872;12.972;2023-07-29T04:44:01;17.50;99.90
21627;DHT22;10975;47.872;12.972;2023-07-29T04:46:28;17.60;99.90
21627;DHT22;10975;47.872;12.972;2023-07-29T04:48:55;17.70;99.90
21627;DHT22;10975;47.872;12.972;2023-07-29T04:51:23;17.80;99.90
21627;DHT22;10975;47.872;12.972;2023-07-29T04:53:50;18.00;99.90
21627;DHT22;10975;47.872;12.972;2023-07-29T04:56:17;18.20;99.90
21627;DHT22;10975;47.872;12.972;2023-07-29T04:58:46;18.30;99.90
21627;DHT22;10975;47.872;12.972;2023-07-29T05:01:13;18.40;99.90
21627;DHT22;10975;47.872;12.972;2023-07-29T05:03:40;18.40;99.90
21627;DHT22;10975;47.872;12.972;2023-07-29T05:06:07;18.50;99.90
21627;DHT22;10975;47.872;12.972;2023-07-29T05:08:35;18.50;99.90
21627;DHT22;10975;47.872;12.972;2023-07-29T05:11:02;18.40;99.90
21627;DHT22;10975;47.872;12.972;2023-07-29T05:13:30;18.40;99.90
21627;DHT22;10975;47.872;12.972;2023-07-29T05:15:57;18.50;99.90
21627;DHT22;10975;47.872;12.972;2023-07-29T05:18:24;18.50;99.90
21627;DHT22;10975;47.872;12.972;2023-07-29T05:20:51;18.50;99.90
21627;DHT22;10975;47.872;12.972;2023-07-29T05:23:18;18.50;99.90
21627;DHT22;10975;47.872;12.972;2023-07-29T05:25:45;18.50;99.90
21627;DHT22;10975;47.872;12.972;2023-07-29T05:28:12;18.50;99.90
21627;DHT22;10975;47.872;12.972;2023-07-29T05:30:39;18.50;99.90
21627;DHT22;10975;47.872;12.972;2023-07-29T05:33:06;18.40;99.90
21627;DHT22;10975;47.872;12.972;2023-07-29T05:35:36;18.50;99.90
21627;DHT22;10975;47.872;12.972;2023-07-29T05:38:03;18.60;99.90
21627;DHT22;10975;47.872;12.972;2023-07-29T05:40:35;18.70;99.90
21627;DHT22;10975;47.872;12.972;2023-07-29T05:43:04;18.90;99.90
21627;DHT22;10975;47.872;12.972;2023-07-29T05:45:33;19.10;99.90
21627;DHT22;10975;47.872;12.972;2023-07-29T05:48:00;19.30;99.90
21627;DHT22;10975;47.872;12.972;2023-07-29T05:50:27;19.40;99.90
21627;DHT22;10975;47.872;12.972;2023-07-29T05:52:54;19.50;99.90
21627;DHT22;10975;47.872;12.972;2023-07-29T05:55:21;19.50;99.90
21627;DHT22;10975;47.872;12.972;2023-07-29T05:57:48;19.50;99.90
21627;DHT22;10975;47.872;12.972;2023-07-29T06:00:17;19.50;99.90
21627;DHT22;10975;47.872;12.972;2023-07-29T06:03:24;19.60;99.90
21627;DHT22;10975;47.872;12.972;2023-07-29T06:05:51;19.60;99.90
21627;DHT22;10975;47.872;12.972;2023-07-29T06:08:21;19.70;99.90
21627;DHT22;10975;47.872;12.972;2023-07-29T06:10:48;19.80;99.90
21627;DHT22;10975;47.872;12.972;2023-07-29T06:13:17;19.80;99.90
21627;DHT22;10975;47.872;12.972;2023-07-29T06:15:44;19.80;99.90
21627;DHT22;10975;47.872;12.972;2023-07-29T06:18:11;19.80;99.90
21627;DHT22;10975;47.872;12.972;2023-07-29T06:20:42;19.80;99.90
21627;DHT22;10975;47.872;12.972;2023-07-29T06:23:12;19.70;99.90
21627;DHT22;10975;47.872;12.972;2023-07-29T06:25:39;19.70;99.90
21627;DHT22;10975;47.872;12.972;2023-07-29T06:28:05;19.80;99.90
21627;DHT22;10975;47.872;12.972;2023-07-29T06:30:33;19.90;99.90
21627;DHT22;10975;47.872;12.972;2023-07-29T06:32:59;20.10;99.90
21627;DHT22;10975;47.872;12.972;2023-07-29T06:35:26;20.20;99.90
21627;DHT22;10975;47.872;12.972;2023-07-29T06:37:53;20.40;99.90
21627;DHT22;10975;47.872;12.972;2023-07-29T06:40:20;20.60;99.90
21627;DHT22;10975;47.872;12.972;2023-07-29T06:42:49;20.90;99.90
21627;DHT22;10975;47.872;12.972;2023-07-29T06:45:16;21.10;99.90
21627;DHT22;10975;47.872;12.972;2023-07-29T06:47:43;21.10;99.90
21627;DHT22;10975;47.872;12.972;2023-07-29T06:50:10;21.10;99.90
21627;DHT22;10975;47.872;12.972;2023-07-29T06:52:36;21.00;99.90
21627;DHT22;10975;47.872;12.972;2023-07-29T06:55:04;20.90;99.90
21627;DHT22;10975;47.872;12.972;2023-07-29T06:57:31;20.80;99.90
21627;DHT22;10975;47.872;12.972;2023-07-29T06:59:58;20.70;99.90
21627;DHT22;10975;47.872;12.972;2023-07-29T07:02:25;20.60;99.90
21627;DHT22;10975;47.872;12.972;2023-07-29T07:04:52;20.60;99.90
21627;DHT22;10975;47.872;12.972;2023-07-29T07:07:19;20.60;99.90
21627;DHT22;10975;47.872;12.972;2023-07-29T07:09:45;20.60;99.90
21627;DHT22;10975;47.872;12.972;2023-07-29T07:12:12;20.90;99.90
21627;DHT22;10975;47.872;12.972;2023-07-29T07:14:39;21.10;99.90
21627;DHT22;10975;47.872;12.972;2023-07-29T07:17:05;21.30;99.90
21627;DHT22;10975;47.872;12.972;2023-07-29T07:19:32;21.60;99.90
21627;DHT22;10975;47.872;12.972;2023-07-29T07:22:59;21.90;99.90
21627;DHT22;10975;47.872;12.972;2023-07-29T07:25:52;22.10;99.90
21627;DHT22;10975;47.872;12.972;2023-07-29T07:28:19;22.30;99.90
21627;DHT22;10975;47.872;12.972;2023-07-29T07:30:46;22.40;99.90
21627;DHT22;10975;47.872;12.972;2023-07-29T07:33:14;22.50;99.90
21627;DHT22;10975;47.872;12.972;2023-07-29T07:35:40;22.40;99.90
21627;DHT22;10975;47.872;12.972;2023-07-29T07:38:08;22.50;99.90
21627;DHT22;10975;47.872;12.972;2023-07-29T07:41:05;22.40;99.90
21627;DHT22;10975;47.872;12.972;2023-07-29T07:47:00;22.50;99.90
21627;DHT22;10975;47.872;12.972;2023-07-29T07:49:30;22.50;99.90
21627;DHT22;10975;47.872;12.972;2023-07-29T07:51:57;22.40;99.90
21627;DHT22;10975;47.872;12.972;2023-07-29T07:54:24;22.40;99.90
21627;DHT22;10975;47.872;12.972;2023-07-29T07:56:50;22.40;99.90
21627;DHT22;10975;47.872;12.972;2023-07-29T07:59:17;22.40;99.90
21627;DHT22;10975;47.872;12.972;2023-07-29T08:01:44;22.60;99.90
21627;DHT22;10975;47.872;12.972;2023-07-29T08:04:10;22.80;99.90
21627;DHT22;10975;47.872;12.972;2023-07-29T08:06:38;22.80;99.90
21627;DHT22;10975;47.872;12.972;2023-07-29T08:09:05;22.70;99.90
21627;DHT22;10975;47.872;12.972;2023-07-29T08:11:32;22.70;99.90
21627;DHT22;10975;47.872;12.972;2023-07-29T08:13:59;22.60;99.90
21627;DHT22;10975;47.872;12.972;2023-07-29T08:16:26;22.60;99.90
21627;DHT22;10975;47.872;12.972;2023-07-29T08:18:53;22.70;99.90
21627;DHT22;10975;47.872;12.972;2023-07-29T08:24:49;22.80;99.90
21627;DHT22;10975;47.872;12.972;2023-07-29T08:27:43;22.90;99.90
21627;DHT22;10975;47.872;12.972;2023-07-29T08:30:51;23.00;99.90
21627;DHT22;10975;47.872;12.972;2023-07-29T08:36:57;23.10;99.90
21627;DHT22;10975;47.872;12.972;2023-07-29T08:39:49;23.10;99.90
21627;DHT22;10975;47.872;12.972;2023-07-29T08:42:16;23.00;99.90
21627;DHT22;10975;47.872;12.972;2023-07-29T08:44:43;23.00;99.90
21627;DHT22;10975;47.872;12.972;2023-07-29T08:47:15;22.90;99.90
21627;DHT22;10975;47.872;12.972;2023-07-29T08:50:01;22.80;99.90
21627;DHT22;10975;47.872;12.972;2023-07-29T08:52:29;22.70;99.90
21627;DHT22;10975;47.872;12.972;2023-07-29T08:54:58;22.60;99.90
21627;DHT22;10975;47.872;12.972;2023-07-29T08:57:25;22.50;99.90
21627;DHT22;10975;47.872;12.972;2023-07-29T08:59:52;22.30;99.90
21627;DHT22;10975;47.872;12.972;2023-07-29T09:02:19;22.30;99.90
21627;DHT22;10975;47.872;12.972;2023-07-29T09:04:46;22.20;99.90
21627;DHT22;10975;47.872;12.972;2023-07-29T09:07:12;22.20;99.90
21627;DHT22;10975;47.872;12.972;2023-07-29T09:09:39;22.20;99.90
21627;DHT22;10975;47.872;12.972;2023-07-29T09:12:06;22.20;99.90
21627;DHT22;10975;47.872;12.972;2023-07-29T09:14:33;22.30;99.90
21627;DHT22;10975;47.872;12.972;2023-07-29T09:17:00;22.30;99.90
21627;DHT22;10975;47.872;12.972;2023-07-29T09:19:27;22.20;99.90
21627;DHT22;10975;47.872;12.972;2023-07-29T09:21:53;22.30;99.90
21627;DHT22;10975;47.872;12.972;2023-07-29T09:24:21;22.20;99.90
21627;DHT22;10975;47.872;12.972;2023-07-29T09:27:06;22.20;99.90
21627;DHT22;10975;47.872;12.972;2023-07-29T09:30:15;22.30;99.90
21627;DHT22;10975;47.872;12.972;2023-07-29T09:32:42;22.50;99.90
21627;DHT22;10975;47.872;12.972;2023-07-29T09:35:12;22.60;99.90
21627;DHT22;10975;47.872;12.972;2023-07-29T09:37:39;22.80;99.90
21627;DHT22;10975;47.872;12.972;2023-07-29T09:40:12;23.00;99.90
21627;DHT22;10975;47.872;12.972;2023-07-29T09:42:59;23.10;99.90
21627;DHT22;10975;47.872;12.972;2023-07-29T09:45:26;23.20;99.90
21627;DHT22;10975;47.872;12.972;2023-07-29T09:47:54;23.20;99.90
21627;DHT22;10975;47.872;12.972;2023-07-29T09:51:16;23.20;99.90
21627;DHT22;10975;47.872;12.972;2023-07-29T09:53:44;23.30;99.90
21627;DHT22;10975;47.872;12.972;2023-07-29T09:56:16;23.30;99.90
21627;DHT22;10975;47.872;12.972;2023-07-29T09:58:44;23.20;99.90
21627;DHT22;10975;47.872;12.972;2023-07-29T10:01:12;23.00;99.90
21627;DHT22;10975;47.872;12.972;2023-07-29T10:03:39;22.80;99.90
21627;DHT22;10975;47.872;12.972;2023-07-29T10:06:06;22.70;99.90
21627;DHT22;10975;47.872;12.972;2023-07-29T10:08:33;22.80;99.90
21627;DHT22;10975;47.872;12.972;2023-07-29T10:11:05;22.80;99.90
21627;DHT22;10975;47.872;12.972;2023-07-29T10:13:32;22.80;99.90
21627;DHT22;10975;47.872;12.972;2023-07-29T10:15:59;22.80;99.90
21627;DHT22;10975;47.872;12.972;2023-07-29T10:18:29;22.80;99.90
21627;DHT22;10975;47.872;12.972;2023-07-29T10:20:57;22.90;99.90
21627;DHT22;10975;47.872;12.972;2023-07-29T10:23:24;23.10;99.90
21627;DHT22;10975;47.872;12.972;2023-07-29T10:26:10;23.40;99.90
21627;DHT22;10975;47.872;12.972;2023-07-29T10:28:39;23.60;99.90
21627;DHT22;10975;47.872;12.972;2023-07-29T10:31:06;23.80;99.90
21627;DHT22;10975;47.872;12.972;2023-07-29T10:33:33;23.90;99.90
21627;DHT22;10975;47.872;12.972;2023-07-29T10:36:04;24.10;99.90
21627;DHT22;10975;47.872;12.972;2023-07-29T10:38:32;24.20;99.90
21627;DHT22;10975;47.872;12.972;2023-07-29T10:40:59;24.20;99.90
21627;DHT22;10975;47.872;12.972;2023-07-29T10:45:55;24.30;99.90
21627;DHT22;10975;47.872;12.972;2023-07-29T10:48:40;24.30;99.90
21627;DHT22;10975;47.872;12.972;2023-07-29T10:53:54;24.50;99.90
21627;DHT22;10975;47.872;12.972;2023-07-29T10:56:31;24.60;99.90
21627;DHT22;10975;47.872;12.972;2023-07-29T10:58:59;24.70;99.90
21627;DHT22;10975;47.872;12.972;2023-07-29T11:01:31;24.80;99.90
21627;DHT22;10975;47.872;12.972;2023-07-29T11:17:36;25.10;99.90
21627;DHT22;10975;47.872;12.972;2023-07-29T11:20:03;25.10;99.90
21627;DHT22;10975;47.872;12.972;2023-07-29T11:22:30;25.10;99.90
21627;DHT22;10975;47.872;12.972;2023-07-29T11:25:00;25.00;99.90
21627;DHT22;10975;47.872;12.972;2023-07-29T11:27:26;25.00;99.90
21627;DHT22;10975;47.872;12.972;2023-07-29T11:30:12;24.90;99.90
21627;DHT22;10975;47.872;12.972;2023-07-29T11:32:39;24.90;99.90
21627;DHT22;10975;47.872;12.972;2023-07-29T11:37:34;25.30;99.90
21627;DHT22;10975;47.872;12.972;2023-07-29T11:40:01;25.40;99.90
21627;DHT22;10975;47.872;12.972;2023-07-29T11:42:28;25.40;99.90
21627;DHT22;10975;47.872;12.972;2023-07-29T11:44:57;25.50;99.90
21627;DHT22;10975;47.872;12.972;2023-07-29T11:47:27;25.50;99.90
21627;DHT22;10975;47.872;12.972;2023-07-29T11:49:54;25.50;99.90
21627;DHT22;10975;47.872;12.972;2023-07-29T11:52:21;25.60;99.90
21627;DHT22;10975;47.872;12.972;2023-07-29T11:54:48;25.70;99.90
21627;DHT22;10975;47.872;12.972;2023-07-29T11:57:16;25.70;99.90
21627;DHT22;10975;47.872;12.972;2023-07-29T11:59:43;25.60;99.90
21627;DHT22;10975;47.872;12.972;2023-07-29T12:02:12;25.60;99.90
21627;DHT22;10975;47.872;12.972;2023-07-29T12:04:47;25.70;99.90
21627;DHT22;10975;47.872;12.972;2023-07-29T12:07:17;26.10;99.90
21627;DHT22;10975;47.872;12.972;2023-07-29T12:09:48;26.30;99.90
21627;DHT22;10975;47.872;12.972;2023-07-29T12:12:15;26.30;99.90
21627;DHT22;10975;47.872;12.972;2023-07-29T12:14:45;26.20;99.90
21627;DHT22;10975;47.872;12.972;2023-07-29T12:17:15;26.10;99.90
21627;DHT22;10975;47.872;12.972;2023-07-29T12:19:42;26.00;99.90
21627;DHT22;10975;47.872;12.972;2023-07-29T12:22:09;26.00;99.90
21627;DHT22;10975;47.872;12.972;2023-07-29T12:24:37;26.00;99.90
21627;DHT22;10975;47.872;12.972;2023-07-29T12:27:04;26.10;99.90
21627;DHT22;10975;47.872;12.972;2023-07-29T12:29:31;26.00;99.90
21627;DHT22;10975;47.872;12.972;2023-07-29T12:32:02;26.00;99.90
21627;DHT22;10975;47.872;12.972;2023-07-29T12:34:30;26.10;99.90
21627;DHT22;10975;47.872;12.972;2023-07-29T12:36:57;26.20;99.90
21627;DHT22;10975;47.872;12.972;2023-07-29T12:39:25;26.30;99.90
21627;DHT22;10975;47.872;12.972;2023-07-29T12:41:53;26.50;99.90
21627;DHT22;10975;47.872;12.972;2023-07-29T12:44:20;26.50;99.90
21627;DHT22;10975;47.872;12.972;2023-07-29T12:46:47;26.50;99.90
21627;DHT22;10975;47.872;12.972;2023-07-29T12:49:14;26.40;99.90
21627;DHT22;10975;47.872;12.972;2023-07-29T12:51:40;26.10;99.90
21627;DHT22;10975;47.872;12.972;2023-07-29T12:54:07;25.80;99.90
21627;DHT22;10975;47.872;12.972;2023-07-29T12:56:34;25.60;99.90
21627;DHT22;10975;47.872;12.972;2023-07-29T12:59:01;25.50;99.90
21627;DHT22;10975;47.872;12.972;2023-07-29T13:01:28;25.70;99.90
21627;DHT22;10975;47.872;12.972;2023-07-29T13:03:55;25.10;99.90
21627;DHT22;10975;47.872;12.972;2023-07-29T13:06:23;24.70;99.90
21627;DHT22;10975;47.872;12.972;2023-07-29T13:08:49;24.40;99.90
21627;DHT22;10975;47.872;12.972;2023-07-29T13:11:16;24.50;99.90
21627;DHT22;10975;47.872;12.972;2023-07-29T13:13:43;24.50;99.90
21627;DHT22;10975;47.872;12.972;2023-07-29T13:16:12;24.30;99.90
21627;DHT22;10975;47.872;12.972;2023-07-29T13:18:39;24.60;99.90
21627;DHT22;10975;47.872;12.972;2023-07-29T13:21:07;24.40;99.90
21627;DHT22;10975;47.872;12.972;2023-07-29T13:23:34;24.40;99.90
21627;DHT22;10975;47.872;12.972;2023-07-29T13:26:00;24.20;99.90
21627;DHT22;10975;47.872;12.972;2023-07-29T13:28:27;24.30;99.90
21627;DHT22;10975;47.872;12.972;2023-07-29T13:30:54;24.40;99.90
21627;DHT22;10975;47.872;12.972;2023-07-29T13:33:21;24.20;99.90
21627;DHT22;10975;47.872;12.972;2023-07-29T13:35:47;24.30;99.90
21627;DHT22;10975;47.872;12.972;2023-07-29T13:38:14;24.20;99.90
21627;DHT22;10975;47.872;12.972;2023-07-29T13:40:41;23.90;99.90
21627;DHT22;10975;47.872;12.972;2023-07-29T13:43:08;23.90;99.90
21627;DHT22;10975;47.872;12.972;2023-07-29T13:45:34;23.90;99.90
21627;DHT22;10975;47.872;12.972;2023-07-29T13:48:01;23.80;99.90
21627;DHT22;10975;47.872;12.972;2023-07-29T13:50:28;23.60;99.90
21627;DHT22;10975;47.872;12.972;2023-07-29T13:52:55;23.70;99.90
21627;DHT22;10975;47.872;12.972;2023-07-29T13:55:21;24.10;99.90
21627;DHT22;10975;47.872;12.972;2023-07-29T13:57:48;24.20;99.90
21627;DHT22;10975;47.872;12.972;2023-07-29T14:00:15;24.10;99.90
21627;DHT22;10975;47.872;12.972;2023-07-29T14:02:41;24.10;99.90
21627;DHT22;10975;47.872;12.972;2023-07-29T14:05:09;23.80;99.90
21627;DHT22;10975;47.872;12.972;2023-07-29T14:07:38;23.70;99.90
21627;DHT22;10975;47.872;12.972;2023-07-29T14:10:05;23.80;99.90
21627;DHT22;10975;47.872;12.972;2023-07-29T14:12:32;23.90;99.90
21627;DHT22;10975;47.872;12.972;2023-07-29T14:14:58;24.10;99.90
21627;DHT22;10975;47.872;12.972;2023-07-29T14:17:25;24.10;99.90
21627;DHT22;10975;47.872;12.972;2023-07-29T14:19:52;24.10;99.90
21627;DHT22;10975;47.872;12.972;2023-07-29T14:22:18;23.90;99.90
21627;DHT22;10975;47.872;12.972;2023-07-29T14:24:45;23.60;99.90
21627;DHT22;10975;47.872;12.972;2023-07-29T14:27:12;23.50;99.90
21627;DHT22;10975;47.872;12.972;2023-07-29T14:29:38;23.20;99.90
21627;DHT22;10975;47.872;12.972;2023-07-29T14:32:05;23.00;99.90
21627;DHT22;10975;47.872;12.972;2023-07-29T14:34:32;22.90;99.90
21627;DHT22;10975;47.872;12.972;2023-07-29T14:36:59;22.80;99.90
21627;DHT22;10975;47.872;12.972;2023-07-29T14:39:25;22.80;99.90
21627;DHT22;10975;47.872;12.972;2023-07-29T14:41:52;22.70;99.90
21627;DHT22;10975;47.872;12.972;2023-07-29T14:44:19;22.60;99.90
21627;DHT22;10975;47.872;12.972;2023-07-29T14:46:45;22.50;99.90
21627;DHT22;10975;47.872;12.972;2023-07-29T14:49:12;22.40;99.90
21627;DHT22;10975;47.872;12.972;2023-07-29T14:51:39;22.40;99.90
21627;DHT22;10975;47.872;12.972;2023-07-29T14:54:06;22.30;99.90
21627;DHT22;10975;47.872;12.972;2023-07-29T14:56:32;22.20;99.90
21627;DHT22;10975;47.872;12.972;2023-07-29T14:58:59;22.20;99.90
21627;DHT22;10975;47.872;12.972;2023-07-29T15:01:26;22.20;99.90
21627;DHT22;10975;47.872;12.972;2023-07-29T15:03:53;21.80;99.90
21627;DHT22;10975;47.872;12.972;2023-07-29T15:06:20;21.20;99.90
21627;DHT22;10975;47.872;12.972;2023-07-29T15:08:46;21.20;99.90
21627;DHT22;10975;47.872;12.972;2023-07-29T15:11:13;21.30;99.90
21627;DHT22;10975;47.872;12.972;2023-07-29T15:13:40;21.30;99.90
21627;DHT22;10975;47.872;12.972;2023-07-29T15:16:06;21.30;99.90
21627;DHT22;10975;47.872;12.972;2023-07-29T15:18:33;21.40;99.90
21627;DHT22;10975;47.872;12.972;2023-07-29T15:21:00;21.30;99.90
21627;DHT22;10975;47.872;12.972;2023-07-29T15:23:29;21.40;99.90
21627;DHT22;10975;47.872;12.972;2023-07-29T15:25:55;21.40;99.90
21627;DHT22;10975;47.872;12.972;2023-07-29T15:28:23;21.50;99.90
21627;DHT22;10975;47.872;12.972;2023-07-29T15:30:50;21.50;99.90
21627;DHT22;10975;47.872;12.972;2023-07-29T15:33:18;21.50;99.90
21627;DHT22;10975;47.872;12.972;2023-07-29T15:35:44;21.60;99.90
21627;DHT22;10975;47.872;12.972;2023-07-29T15:38:11;21.60;99.90
21627;DHT22;10975;47.872;12.972;2023-07-29T15:40:38;21.60;99.90
21627;DHT22;10975;47.872;12.972;2023-07-29T15:43:04;21.50;99.90
21627;DHT22;10975;47.872;12.972;2023-07-29T15:45:31;21.50;99.90
21627;DHT22;10975;47.872;12.972;2023-07-29T15:47:58;21.40;99.90
21627;DHT22;10975;47.872;12.972;2023-07-29T15:50:25;21.40;99.90
21627;DHT22;10975;47.872;12.972;2023-07-29T15:52:51;21.30;99.90
21627;DHT22;10975;47.872;12.972;2023-07-29T15:55:18;21.20;99.90
21627;DHT22;10975;47.872;12.972;2023-07-29T15:57:45;21.10;99.90
21627;DHT22;10975;47.872;12.972;2023-07-29T16:00:12;21.10;99.90
21627;DHT22;10975;47.872;12.972;2023-07-29T16:02:39;20.90;99.90